<?xml version="1.0" encoding="UTF-8" standalone="no" ?>
<gpx xmlns="http://www.topografix.com/GPX/1/1" xmlns:xsi="http://www.w3.org/2001/XMLSchema-instance" xsi:schemaLocation="http://www.topografix.com/GPX/1/1 http://www.topografix.com/GPX/1/1/gpx.xsd" version="1.1" creator="VisuGPX - https://www.visugpx.com">
  <metadata>
    <name>Mormal_Locquignole</name>
    <desc><![CDATA[Traverser de la forêt de Mormal sur 15 km avec un dénivelé de 80 m. Milieu magique remplis de légende avec peut-être des rencontre extraordinaire de Chevreuil, Renard et autres Sanglierq.]]></desc>
  </metadata>
  <trk>
    <name><![CDATA[Mormal_Locquignole]]></name>
    <extensions>
      <line xmlns="http://www.topografix.com/GPX/gpx_style/0/2">
        <color>0000FF</color>
        <width>4</width>
      </line>
    </extensions>
    <trkseg>
      <trkpt lat="50.19879" lon="3.71705">
        <ele>157</ele>
        <time>2023-09-15T07:45:57Z</time>
      </trkpt>
      <trkpt lat="50.19887" lon="3.71671">
        <ele>156</ele>
        <time>2023-09-15T07:46:28Z</time>
      </trkpt>
      <trkpt lat="50.19868" lon="3.71659">
        <ele>156</ele>
        <time>2023-09-15T07:46:55Z</time>
      </trkpt>
      <trkpt lat="50.1987" lon="3.71624">
        <ele>155</ele>
        <time>2023-09-15T07:47:25Z</time>
      </trkpt>
      <trkpt lat="50.19875" lon="3.71605">
        <ele>155</ele>
        <time>2023-09-15T07:47:43Z</time>
      </trkpt>
      <trkpt lat="50.19995" lon="3.71328">
        <ele>154</ele>
        <time>2023-09-15T07:52:29Z</time>
      </trkpt>
      <trkpt lat="50.20011" lon="3.71279">
        <ele>153</ele>
        <time>2023-09-15T07:53:16Z</time>
      </trkpt>
      <trkpt lat="50.2013" lon="3.70806">
        <ele>160</ele>
        <time>2023-09-15T08:00:30Z</time>
      </trkpt>
      <trkpt lat="50.20141" lon="3.70774">
        <ele>160</ele>
        <time>2023-09-15T08:01:01Z</time>
      </trkpt>
      <trkpt lat="50.20268" lon="3.70513">
        <ele>159</ele>
        <time>2023-09-15T08:04:45Z</time>
      </trkpt>
      <trkpt lat="50.20226" lon="3.6957">
        <ele>168</ele>
        <time>2023-09-15T08:18:56Z</time>
      </trkpt>
      <trkpt lat="50.20217" lon="3.69307">
        <ele>155</ele>
      </trkpt>
      <trkpt lat="50.20426" lon="3.68962">
        <ele>149.4</ele>
      </trkpt>
      <trkpt lat="50.20185" lon="3.68041">
        <ele>149</ele>
      </trkpt>
      <trkpt lat="50.20174" lon="3.67939">
        <ele>155</ele>
        <time>2023-09-15T08:44:04Z</time>
      </trkpt>
      <trkpt lat="50.2013" lon="3.67036">
        <ele>159</ele>
        <time>2023-09-15T08:56:58Z</time>
      </trkpt>
      <trkpt lat="50.20118" lon="3.66834">
        <ele>156</ele>
        <time>2023-09-15T09:00:20Z</time>
      </trkpt>
      <trkpt lat="50.20114" lon="3.66718">
        <ele>147.9</ele>
      </trkpt>
      <trkpt lat="50.20092" lon="3.66742">
        <ele>147.1</ele>
      </trkpt>
      <trkpt lat="50.2007" lon="3.66761">
        <ele>147.1</ele>
      </trkpt>
      <trkpt lat="50.20061" lon="3.66776">
        <ele>147.5</ele>
      </trkpt>
      <trkpt lat="50.20055" lon="3.66798">
        <ele>148</ele>
      </trkpt>
      <trkpt lat="50.20045" lon="3.66834">
        <ele>148.8</ele>
      </trkpt>
      <trkpt lat="50.19925" lon="3.67034">
        <ele>152</ele>
        <time>2023-09-15T09:03:27Z</time>
      </trkpt>
      <trkpt lat="50.19894" lon="3.67091">
        <ele>154</ele>
        <time>2023-09-15T09:04:31Z</time>
      </trkpt>
      <trkpt lat="50.19847" lon="3.67165">
        <ele>156</ele>
        <time>2023-09-15T09:06:00Z</time>
      </trkpt>
      <trkpt lat="50.1979" lon="3.67264">
        <ele>156</ele>
        <time>2023-09-15T09:07:54Z</time>
      </trkpt>
      <trkpt lat="50.19762" lon="3.67306">
        <ele>156</ele>
        <time>2023-09-15T09:08:46Z</time>
      </trkpt>
      <trkpt lat="50.19746" lon="3.67339">
        <ele>156</ele>
        <time>2023-09-15T09:09:21Z</time>
      </trkpt>
      <trkpt lat="50.19703" lon="3.67415">
        <ele>156</ele>
        <time>2023-09-15T09:10:48Z</time>
      </trkpt>
      <trkpt lat="50.1936" lon="3.67983">
        <ele>155</ele>
        <time>2023-09-15T09:21:55Z</time>
      </trkpt>
      <trkpt lat="50.1927" lon="3.68143">
        <ele>152</ele>
        <time>2023-09-15T09:24:57Z</time>
      </trkpt>
      <trkpt lat="50.19107" lon="3.68402">
        <ele>157</ele>
        <time>2023-09-15T09:30:07Z</time>
      </trkpt>
      <trkpt lat="50.18928" lon="3.68715">
        <ele>164</ele>
        <time>2023-09-15T09:36:06Z</time>
      </trkpt>
      <trkpt lat="50.18436" lon="3.69525">
        <ele>171</ele>
        <time>2023-09-15T09:52:02Z</time>
      </trkpt>
      <trkpt lat="50.18536" lon="3.70008">
        <ele>168</ele>
        <time>2023-09-15T09:59:24Z</time>
      </trkpt>
      <trkpt lat="50.18638" lon="3.70502">
        <ele>174</ele>
        <time>2023-09-15T10:06:48Z</time>
      </trkpt>
      <trkpt lat="50.18329" lon="3.71135">
        <ele>155</ele>
      </trkpt>
      <trkpt lat="50.18026" lon="3.71752">
        <ele>170</ele>
        <time>2023-09-15T10:35:16Z</time>
      </trkpt>
      <trkpt lat="50.17838" lon="3.72112">
        <ele>158.2</ele>
      </trkpt>
      <trkpt lat="50.17644" lon="3.72521">
        <ele>153.1</ele>
      </trkpt>
      <trkpt lat="50.17464" lon="3.72871">
        <ele>172</ele>
        <time>2023-09-15T10:49:30Z</time>
      </trkpt>
      <trkpt lat="50.17642" lon="3.7332">
        <ele>175</ele>
        <time>2023-09-15T10:57:10Z</time>
      </trkpt>
      <trkpt lat="50.17431" lon="3.73539">
        <ele>176</ele>
        <time>2023-09-15T11:02:27Z</time>
      </trkpt>
      <trkpt lat="50.17263" lon="3.73584">
        <ele>161.4</ele>
      </trkpt>
      <trkpt lat="50.17106" lon="3.73637">
        <ele>167</ele>
        <time>2023-09-15T11:09:52Z</time>
      </trkpt>
      <trkpt lat="50.17572" lon="3.74605">
        <ele>170</ele>
        <time>2023-09-15T11:27:31Z</time>
      </trkpt>
      <trkpt lat="50.17973" lon="3.74106">
        <ele>177</ele>
        <time>2023-09-15T11:39:03Z</time>
      </trkpt>
      <trkpt lat="50.18179" lon="3.73841">
        <ele>167.8</ele>
      </trkpt>
      <trkpt lat="50.18661" lon="3.73237">
        <ele>175</ele>
        <time>2023-09-15T11:58:44Z</time>
      </trkpt>
      <trkpt lat="50.187" lon="3.73128">
        <ele>171</ele>
        <time>2023-09-15T12:00:31Z</time>
      </trkpt>
      <trkpt lat="50.18715" lon="3.73093">
        <ele>166.5</ele>
      </trkpt>
      <trkpt lat="50.18749" lon="3.73057">
        <ele>168</ele>
      </trkpt>
      <trkpt lat="50.1878" lon="3.73035">
        <ele>169</ele>
      </trkpt>
      <trkpt lat="50.18819" lon="3.73017">
        <ele>169.7</ele>
      </trkpt>
      <trkpt lat="50.18856" lon="3.73005">
        <ele>177</ele>
        <time>2023-09-15T12:04:38Z</time>
      </trkpt>
      <trkpt lat="50.18869" lon="3.72979">
        <ele>169.9</ele>
      </trkpt>
      <trkpt lat="50.18878" lon="3.7294">
        <ele>175</ele>
        <time>2023-09-15T12:05:38Z</time>
      </trkpt>
      <trkpt lat="50.18894" lon="3.72897">
        <ele>169.9</ele>
      </trkpt>
      <trkpt lat="50.18902" lon="3.72885">
        <ele>174</ele>
        <time>2023-09-15T12:06:35Z</time>
      </trkpt>
      <trkpt lat="50.1901" lon="3.72767">
        <ele>173</ele>
        <time>2023-09-15T12:09:41Z</time>
      </trkpt>
      <trkpt lat="50.19034" lon="3.7275">
        <ele>167</ele>
      </trkpt>
      <trkpt lat="50.19064" lon="3.72737">
        <ele>167</ele>
      </trkpt>
      <trkpt lat="50.19132" lon="3.72696">
        <ele>166</ele>
      </trkpt>
      <trkpt lat="50.19153" lon="3.72679">
        <ele>165.8</ele>
      </trkpt>
      <trkpt lat="50.19177" lon="3.72652">
        <ele>166.2</ele>
      </trkpt>
      <trkpt lat="50.19235" lon="3.72572">
        <ele>167.2</ele>
      </trkpt>
      <trkpt lat="50.19251" lon="3.72545">
        <ele>167</ele>
      </trkpt>
      <trkpt lat="50.19254" lon="3.72524">
        <ele>167.1</ele>
      </trkpt>
      <trkpt lat="50.19253" lon="3.72504">
        <ele>167.8</ele>
      </trkpt>
      <trkpt lat="50.19225" lon="3.72419">
        <ele>169</ele>
      </trkpt>
      <trkpt lat="50.1924" lon="3.72402">
        <ele>169</ele>
      </trkpt>
      <trkpt lat="50.19262" lon="3.72368">
        <ele>168.6</ele>
      </trkpt>
      <trkpt lat="50.19341" lon="3.72169">
        <ele>161.1</ele>
      </trkpt>
      <trkpt lat="50.19353" lon="3.72143">
        <ele>160.1</ele>
      </trkpt>
      <trkpt lat="50.19368" lon="3.72097">
        <ele>158.5</ele>
      </trkpt>
      <trkpt lat="50.19382" lon="3.72084">
        <ele>158</ele>
      </trkpt>
      <trkpt lat="50.19396" lon="3.7209">
        <ele>158</ele>
      </trkpt>
      <trkpt lat="50.19405" lon="3.72101">
        <ele>158.4</ele>
      </trkpt>
      <trkpt lat="50.19437" lon="3.72126">
        <ele>157.9</ele>
      </trkpt>
      <trkpt lat="50.19448" lon="3.72131">
        <ele>157.7</ele>
      </trkpt>
      <trkpt lat="50.19458" lon="3.7213">
        <ele>157.7</ele>
      </trkpt>
      <trkpt lat="50.19464" lon="3.72127">
        <ele>157.6</ele>
      </trkpt>
      <trkpt lat="50.19486" lon="3.72135">
        <ele>157.4</ele>
      </trkpt>
      <trkpt lat="50.19495" lon="3.72088">
        <ele>157</ele>
      </trkpt>
      <trkpt lat="50.19498" lon="3.72047">
        <ele>158.3</ele>
      </trkpt>
      <trkpt lat="50.19495" lon="3.72033">
        <ele>158.8</ele>
      </trkpt>
      <trkpt lat="50.19482" lon="3.72013">
        <ele>159.3</ele>
      </trkpt>
      <trkpt lat="50.19468" lon="3.72003">
        <ele>159.9</ele>
      </trkpt>
      <trkpt lat="50.19453" lon="3.71971">
        <ele>160</ele>
      </trkpt>
      <trkpt lat="50.19446" lon="3.7191">
        <ele>161.2</ele>
      </trkpt>
      <trkpt lat="50.19455" lon="3.71834">
        <ele>162</ele>
      </trkpt>
      <trkpt lat="50.19464" lon="3.71803">
        <ele>162.3</ele>
      </trkpt>
      <trkpt lat="50.19469" lon="3.71796">
        <ele>162.4</ele>
      </trkpt>
      <trkpt lat="50.19472" lon="3.71784">
        <ele>162.8</ele>
      </trkpt>
      <trkpt lat="50.19472" lon="3.71762">
        <ele>163</ele>
      </trkpt>
      <trkpt lat="50.19495" lon="3.71759">
        <ele>166</ele>
        <time>2023-09-15T12:40:03Z</time>
      </trkpt>
      <trkpt lat="50.19741" lon="3.71793">
        <ele>158</ele>
        <time>2023-09-15T12:45:32Z</time>
      </trkpt>
      <trkpt lat="50.19807" lon="3.71773">
        <ele>158.2</ele>
      </trkpt>
      <trkpt lat="50.19861" lon="3.71768">
        <ele>158</ele>
        <time>2023-09-15T12:48:20Z</time>
      </trkpt>
    </trkseg>
  </trk>
</gpx>